sensor_id;sensor_type;location;lat;lon;timestamp;temperature;humidity
72865;DHT22;61000;48.120;11.548;2022-07-06T00:00:24;18.80;57.30
72865;DHT22;61000;48.120;11.548;2022-07-06T00:02:51;18.60;57.40
72865;DHT22;61000;48.120;11.548;2022-07-06T00:05:18;18.60;57.60
72865;DHT22;61000;48.120;11.548;2022-07-06T00:07:46;18.60;57.60
72865;DHT22;61000;48.120;11.548;2022-07-06T00:10:13;18.60;57.80
72865;DHT22;61000;48.120;11.548;2022-07-06T00:12:40;18.60;58.00
72865;DHT22;61000;48.120;11.548;2022-07-06T00:15:07;18.70;58.40
72865;DHT22;61000;48.120;11.548;2022-07-06T00:17:34;18.60;58.40
72865;DHT22;61000;48.120;11.548;2022-07-06T00:20:02;18.60;58.30
72865;DHT22;61000;48.120;11.548;2022-07-06T00:22:29;18.70;58.80
72865;DHT22;61000;48.120;11.548;2022-07-06T00:24:57;18.70;58.80
72865;DHT22;61000;48.120;11.548;2022-07-06T00:27:24;18.60;58.90
72865;DHT22;61000;48.120;11.548;2022-07-06T00:29:51;18.60;59.10
72865;DHT22;61000;48.120;11.548;2022-07-06T00:32:18;18.60;59.30
72865;DHT22;61000;48.120;11.548;2022-07-06T00:34:45;18.70;59.30
72865;DHT22;61000;48.120;11.548;2022-07-06T00:37:12;18.60;59.50
72865;DHT22;61000;48.120;11.548;2022-07-06T00:39:40;18.60;59.70
72865;DHT22;61000;48.120;11.548;2022-07-06T00:42:09;18.60;60.30
72865;DHT22;61000;48.120;11.548;2022-07-06T00:44:36;18.50;60.50
72865;DHT22;61000;48.120;11.548;2022-07-06T00:47:03;18.50;60.70
72865;DHT22;61000;48.120;11.548;2022-07-06T00:49:31;18.40;61.00
72865;DHT22;61000;48.120;11.548;2022-07-06T00:52:15;18.40;61.40
72865;DHT22;61000;48.120;11.548;2022-07-06T00:54:43;18.40;62.00
72865;DHT22;61000;48.120;11.548;2022-07-06T00:57:11;18.30;62.10
72865;DHT22;61000;48.120;11.548;2022-07-06T00:59:38;18.40;62.20
72865;DHT22;61000;48.120;11.548;2022-07-06T01:02:05;18.40;62.20
72865;DHT22;61000;48.120;11.548;2022-07-06T01:04:32;18.40;62.20
72865;DHT22;61000;48.120;11.548;2022-07-06T01:07:00;18.30;62.30
72865;DHT22;61000;48.120;11.548;2022-07-06T01:09:28;18.30;62.20
72865;DHT22;61000;48.120;11.548;2022-07-06T01:11:55;18.30;62.50
72865;DHT22;61000;48.120;11.548;2022-07-06T01:14:24;18.30;62.50
72865;DHT22;61000;48.120;11.548;2022-07-06T01:16:51;18.40;62.60
72865;DHT22;61000;48.120;11.548;2022-07-06T01:19:18;18.30;62.80
72865;DHT22;61000;48.120;11.548;2022-07-06T01:21:47;18.30;63.00
72865;DHT22;61000;48.120;11.548;2022-07-06T01:24:13;18.30;63.20
72865;DHT22;61000;48.120;11.548;2022-07-06T01:26:40;18.20;63.30
72865;DHT22;61000;48.120;11.548;2022-07-06T01:29:07;18.20;63.60
72865;DHT22;61000;48.120;11.548;2022-07-06T01:31:34;18.20;64.00
72865;DHT22;61000;48.120;11.548;2022-07-06T01:34:01;18.20;64.10
72865;DHT22;61000;48.120;11.548;2022-07-06T01:36:28;18.10;64.30
72865;DHT22;61000;48.120;11.548;2022-07-06T01:38:56;18.10;64.40
72865;DHT22;61000;48.120;11.548;2022-07-06T01:41:24;18.00;64.80
72865;DHT22;61000;48.120;11.548;2022-07-06T01:43:52;18.00;65.00
72865;DHT22;61000;48.120;11.548;2022-07-06T01:46:19;18.00;66.20
72865;DHT22;61000;48.120;11.548;2022-07-06T01:48:46;17.90;65.40
72865;DHT22;61000;48.120;11.548;2022-07-06T01:51:14;17.80;65.60
72865;DHT22;61000;48.120;11.548;2022-07-06T01:53:43;17.80;65.90
72865;DHT22;61000;48.120;11.548;2022-07-06T01:56:12;17.80;66.10
72865;DHT22;61000;48.120;11.548;2022-07-06T01:58:39;17.80;66.20
72865;DHT22;61000;48.120;11.548;2022-07-06T02:01:08;17.70;66.30
72865;DHT22;61000;48.120;11.548;2022-07-06T02:03:35;17.70;66.90
72865;DHT22;61000;48.120;11.548;2022-07-06T02:06:03;17.60;66.80
72865;DHT22;61000;48.120;11.548;2022-07-06T02:08:31;17.60;67.00
72865;DHT22;61000;48.120;11.548;2022-07-06T02:10:58;17.60;67.40
72865;DHT22;61000;48.120;11.548;2022-07-06T02:13:27;17.50;67.60
72865;DHT22;61000;48.120;11.548;2022-07-06T02:15:54;17.50;68.00
72865;DHT22;61000;48.120;11.548;2022-07-06T02:18:21;17.40;68.60
72865;DHT22;61000;48.120;11.548;2022-07-06T02:20:48;17.40;69.10
72865;DHT22;61000;48.120;11.548;2022-07-06T02:23:15;17.40;69.40
72865;DHT22;61000;48.120;11.548;2022-07-06T02:25:42;17.30;69.80
72865;DHT22;61000;48.120;11.548;2022-07-06T02:28:09;17.30;70.20
72865;DHT22;61000;48.120;11.548;2022-07-06T02:30:38;17.20;71.10
72865;DHT22;61000;48.120;11.548;2022-07-06T02:33:05;17.20;71.00
72865;DHT22;61000;48.120;11.548;2022-07-06T02:35:33;17.20;71.30
72865;DHT22;61000;48.120;11.548;2022-07-06T02:38:00;17.10;71.50
72865;DHT22;61000;48.120;11.548;2022-07-06T02:40:27;17.10;71.60
72865;DHT22;61000;48.120;11.548;2022-07-06T02:42:54;17.10;71.90
72865;DHT22;61000;48.120;11.548;2022-07-06T02:45:21;17.10;71.80
72865;DHT22;61000;48.120;11.548;2022-07-06T02:47:49;17.00;71.40
72865;DHT22;61000;48.120;11.548;2022-07-06T02:50:17;17.00;71.60
72865;DHT22;61000;48.120;11.548;2022-07-06T02:52:44;17.00;71.60
72865;DHT22;61000;48.120;11.548;2022-07-06T02:55:11;17.00;71.60
72865;DHT22;61000;48.120;11.548;2022-07-06T02:57:38;16.90;71.50
72865;DHT22;61000;48.120;11.548;2022-07-06T03:00:07;16.90;71.70
72865;DHT22;61000;48.120;11.548;2022-07-06T03:02:35;16.80;71.80
72865;DHT22;61000;48.120;11.548;2022-07-06T03:05:04;16.90;71.70
72865;DHT22;61000;48.120;11.548;2022-07-06T03:07:32;16.80;71.60
72865;DHT22;61000;48.120;11.548;2022-07-06T03:09:59;16.80;71.70
72865;DHT22;61000;48.120;11.548;2022-07-06T03:12:27;16.80;71.70
72865;DHT22;61000;48.120;11.548;2022-07-06T03:14:54;16.80;71.90
72865;DHT22;61000;48.120;11.548;2022-07-06T03:17:22;16.80;72.00
72865;DHT22;61000;48.120;11.548;2022-07-06T03:19:51;16.70;72.70
72865;DHT22;61000;48.120;11.548;2022-07-06T03:22:20;16.70;72.20
72865;DHT22;61000;48.120;11.548;2022-07-06T03:24:47;16.70;72.50
72865;DHT22;61000;48.120;11.548;2022-07-06T03:27:14;16.70;72.80
72865;DHT22;61000;48.120;11.548;2022-07-06T03:29:41;16.70;72.70
72865;DHT22;61000;48.120;11.548;2022-07-06T03:32:08;16.70;72.70
72865;DHT22;61000;48.120;11.548;2022-07-06T03:34:35;16.60;72.80
72865;DHT22;61000;48.120;11.548;2022-07-06T03:37:03;16.60;73.00
72865;DHT22;61000;48.120;11.548;2022-07-06T03:39:33;16.50;73.20
72865;DHT22;61000;48.120;11.548;2022-07-06T03:42:01;16.50;73.60
72865;DHT22;61000;48.120;11.548;2022-07-06T03:44:28;16.50;73.50
72865;DHT22;61000;48.120;11.548;2022-07-06T03:46:55;16.50;73.70
72865;DHT22;61000;48.120;11.548;2022-07-06T03:49:23;16.50;73.70
72865;DHT22;61000;48.120;11.548;2022-07-06T03:51:53;16.50;73.80
72865;DHT22;61000;48.120;11.548;2022-07-06T03:54:21;16.50;73.90
72865;DHT22;61000;48.120;11.548;2022-07-06T03:56:50;16.50;74.10
72865;DHT22;61000;48.120;11.548;2022-07-06T03:59:18;16.40;74.00
72865;DHT22;61000;48.120;11.548;2022-07-06T04:01:45;16.40;74.10
72865;DHT22;61000;48.120;11.548;2022-07-06T04:04:14;16.40;74.20
72865;DHT22;61000;48.120;11.548;2022-07-06T04:06:44;16.40;74.30
72865;DHT22;61000;48.120;11.548;2022-07-06T04:09:10;16.40;74.50
72865;DHT22;61000;48.120;11.548;2022-07-06T04:11:40;16.40;74.50
72865;DHT22;61000;48.120;11.548;2022-07-06T04:14:09;16.50;74.40
72865;DHT22;61000;48.120;11.548;2022-07-06T04:16:35;16.50;74.40
72865;DHT22;61000;48.120;11.548;2022-07-06T04:19:03;16.50;74.40
72865;DHT22;61000;48.120;11.548;2022-07-06T04:21:30;16.50;74.30
72865;DHT22;61000;48.120;11.548;2022-07-06T04:23:58;16.60;74.50
72865;DHT22;61000;48.120;11.548;2022-07-06T04:26:26;16.60;74.50
72865;DHT22;61000;48.120;11.548;2022-07-06T04:28:54;16.60;74.30
72865;DHT22;61000;48.120;11.548;2022-07-06T04:31:23;16.60;74.20
72865;DHT22;61000;48.120;11.548;2022-07-06T04:33:51;16.70;74.20
72865;DHT22;61000;48.120;11.548;2022-07-06T04:36:18;16.70;74.20
72865;DHT22;61000;48.120;11.548;2022-07-06T04:38:46;16.70;74.20
72865;DHT22;61000;48.120;11.548;2022-07-06T04:41:14;16.70;74.40
72865;DHT22;61000;48.120;11.548;2022-07-06T04:43:42;16.80;74.20
72865;DHT22;61000;48.120;11.548;2022-07-06T04:46:12;16.80;74.30
72865;DHT22;61000;48.120;11.548;2022-07-06T04:48:43;16.90;74.30
72865;DHT22;61000;48.120;11.548;2022-07-06T04:51:15;16.90;74.30
72865;DHT22;61000;48.120;11.548;2022-07-06T04:53:43;17.00;74.60
72865;DHT22;61000;48.120;11.548;2022-07-06T04:56:11;17.00;74.60
72865;DHT22;61000;48.120;11.548;2022-07-06T04:58:39;17.00;74.60
72865;DHT22;61000;48.120;11.548;2022-07-06T05:01:08;17.00;74.80
72865;DHT22;61000;48.120;11.548;2022-07-06T05:03:35;17.10;74.90
72865;DHT22;61000;48.120;11.548;2022-07-06T05:06:08;17.10;74.80
72865;DHT22;61000;48.120;11.548;2022-07-06T05:08:34;17.20;74.80
72865;DHT22;61000;48.120;11.548;2022-07-06T05:11:01;17.20;74.80
72865;DHT22;61000;48.120;11.548;2022-07-06T05:13:29;17.20;75.40
72865;DHT22;61000;48.120;11.548;2022-07-06T05:15:56;17.30;74.50
72865;DHT22;61000;48.120;11.548;2022-07-06T05:18:23;17.40;74.30
72865;DHT22;61000;48.120;11.548;2022-07-06T05:20:50;17.40;74.20
72865;DHT22;61000;48.120;11.548;2022-07-06T05:23:19;17.60;73.80
72865;DHT22;61000;48.120;11.548;2022-07-06T05:25:46;17.70;72.80
72865;DHT22;61000;48.120;11.548;2022-07-06T05:28:13;17.80;72.30
72865;DHT22;61000;48.120;11.548;2022-07-06T05:30:40;17.90;71.10
72865;DHT22;61000;48.120;11.548;2022-07-06T05:33:08;18.00;70.70
72865;DHT22;61000;48.120;11.548;2022-07-06T05:35:35;18.10;69.40
72865;DHT22;61000;48.120;11.548;2022-07-06T05:38:03;18.20;68.70
72865;DHT22;61000;48.120;11.548;2022-07-06T05:40:31;18.20;68.00
72865;DHT22;61000;48.120;11.548;2022-07-06T05:42:59;18.30;67.50
72865;DHT22;61000;48.120;11.548;2022-07-06T05:45:26;18.30;66.90
72865;DHT22;61000;48.120;11.548;2022-07-06T05:47:55;18.30;67.10
72865;DHT22;61000;48.120;11.548;2022-07-06T05:50:39;18.30;66.70
72865;DHT22;61000;48.120;11.548;2022-07-06T05:53:07;18.30;65.80
72865;DHT22;61000;48.120;11.548;2022-07-06T05:55:35;18.30;66.30
72865;DHT22;61000;48.120;11.548;2022-07-06T05:58:03;18.30;66.90
72865;DHT22;61000;48.120;11.548;2022-07-06T06:00:32;18.30;67.00
72865;DHT22;61000;48.120;11.548;2022-07-06T06:03:05;18.30;66.70
72865;DHT22;61000;48.120;11.548;2022-07-06T06:05:32;18.30;66.90
72865;DHT22;61000;48.120;11.548;2022-07-06T06:08:03;18.40;66.50
72865;DHT22;61000;48.120;11.548;2022-07-06T06:10:30;18.40;66.70
72865;DHT22;61000;48.120;11.548;2022-07-06T06:13:03;18.50;66.70
72865;DHT22;61000;48.120;11.548;2022-07-06T06:15:31;18.50;66.70
72865;DHT22;61000;48.120;11.548;2022-07-06T06:17:58;18.60;66.80
72865;DHT22;61000;48.120;11.548;2022-07-06T06:20:25;18.60;66.30
72865;DHT22;61000;48.120;11.548;2022-07-06T06:22:53;18.60;65.40
72865;DHT22;61000;48.120;11.548;2022-07-06T06:25:27;18.60;65.50
72865;DHT22;61000;48.120;11.548;2022-07-06T06:27:54;18.70;64.40
72865;DHT22;61000;48.120;11.548;2022-07-06T06:30:22;18.70;64.70
72865;DHT22;61000;48.120;11.548;2022-07-06T06:32:49;18.70;64.50
72865;DHT22;61000;48.120;11.548;2022-07-06T06:35:16;18.70;64.40
72865;DHT22;61000;48.120;11.548;2022-07-06T06:37:43;18.80;64.30
72865;DHT22;61000;48.120;11.548;2022-07-06T06:40:11;18.80;64.20
72865;DHT22;61000;48.120;11.548;2022-07-06T06:42:38;18.80;63.40
72865;DHT22;61000;48.120;11.548;2022-07-06T06:45:10;18.90;63.00
72865;DHT22;61000;48.120;11.548;2022-07-06T06:47:38;18.90;62.60
72865;DHT22;61000;48.120;11.548;2022-07-06T06:50:05;18.90;61.20
72865;DHT22;61000;48.120;11.548;2022-07-06T06:52:32;18.90;61.40
72865;DHT22;61000;48.120;11.548;2022-07-06T06:54:59;18.90;61.20
72865;DHT22;61000;48.120;11.548;2022-07-06T06:57:26;18.90;61.70
72865;DHT22;61000;48.120;11.548;2022-07-06T06:59:54;18.90;61.50
72865;DHT22;61000;48.120;11.548;2022-07-06T07:02:21;19.00;60.50
72865;DHT22;61000;48.120;11.548;2022-07-06T07:04:49;19.00;60.60
72865;DHT22;61000;48.120;11.548;2022-07-06T07:07:16;19.10;60.40
72865;DHT22;61000;48.120;11.548;2022-07-06T07:09:43;19.10;59.80
72865;DHT22;61000;48.120;11.548;2022-07-06T07:12:10;19.20;58.70
72865;DHT22;61000;48.120;11.548;2022-07-06T07:14:37;19.20;58.00
72865;DHT22;61000;48.120;11.548;2022-07-06T07:17:04;19.30;58.30
72865;DHT22;61000;48.120;11.548;2022-07-06T07:19:31;19.30;57.90
72865;DHT22;61000;48.120;11.548;2022-07-06T07:21:59;19.40;57.90
72865;DHT22;61000;48.120;11.548;2022-07-06T07:24:26;19.50;57.90
72865;DHT22;61000;48.120;11.548;2022-07-06T07:26:53;19.60;58.10
72865;DHT22;61000;48.120;11.548;2022-07-06T07:29:20;19.80;57.80
72865;DHT22;61000;48.120;11.548;2022-07-06T07:31:47;20.00;57.20
72865;DHT22;61000;48.120;11.548;2022-07-06T07:34:14;20.10;56.20
72865;DHT22;61000;48.120;11.548;2022-07-06T07:36:40;20.30;56.10
72865;DHT22;61000;48.120;11.548;2022-07-06T07:39:09;20.40;55.20
72865;DHT22;61000;48.120;11.548;2022-07-06T07:41:36;20.50;54.80
72865;DHT22;61000;48.120;11.548;2022-07-06T07:44:03;20.40;54.00
72865;DHT22;61000;48.120;11.548;2022-07-06T07:46:30;20.40;54.10
72865;DHT22;61000;48.120;11.548;2022-07-06T07:48:57;20.40;53.90
72865;DHT22;61000;48.120;11.548;2022-07-06T07:51:24;20.50;53.30
72865;DHT22;61000;48.120;11.548;2022-07-06T07:53:51;20.50;52.40
72865;DHT22;61000;48.120;11.548;2022-07-06T07:56:19;20.60;52.60
72865;DHT22;61000;48.120;11.548;2022-07-06T07:58:46;20.70;52.00
72865;DHT22;61000;48.120;11.548;2022-07-06T08:01:16;20.80;51.50
72865;DHT22;61000;48.120;11.548;2022-07-06T08:03:43;20.90;51.60
72865;DHT22;61000;48.120;11.548;2022-07-06T08:06:10;20.90;51.20
72865;DHT22;61000;48.120;11.548;2022-07-06T08:08:37;20.90;51.00
72865;DHT22;61000;48.120;11.548;2022-07-06T08:11:04;21.00;51.20
72865;DHT22;61000;48.120;11.548;2022-07-06T08:13:32;21.10;50.90
72865;DHT22;61000;48.120;11.548;2022-07-06T08:15:59;21.10;50.70
72865;DHT22;61000;48.120;11.548;2022-07-06T08:18:26;21.10;50.90
72865;DHT22;61000;48.120;11.548;2022-07-06T08:20:53;21.00;51.10
72865;DHT22;61000;48.120;11.548;2022-07-06T08:23:22;21.10;51.30
72865;DHT22;61000;48.120;11.548;2022-07-06T08:25:49;21.20;51.60
72865;DHT22;61000;48.120;11.548;2022-07-06T08:28:16;21.30;51.80
72865;DHT22;61000;48.120;11.548;2022-07-06T08:30:44;21.40;50.60
72865;DHT22;61000;48.120;11.548;2022-07-06T08:33:11;21.40;50.70
72865;DHT22;61000;48.120;11.548;2022-07-06T08:35:38;21.40;50.80
72865;DHT22;61000;48.120;11.548;2022-07-06T08:38:05;21.40;50.70
72865;DHT22;61000;48.120;11.548;2022-07-06T08:40:34;21.50;50.80
72865;DHT22;61000;48.120;11.548;2022-07-06T08:43:01;21.70;51.00
72865;DHT22;61000;48.120;11.548;2022-07-06T08:45:29;21.80;50.80
72865;DHT22;61000;48.120;11.548;2022-07-06T08:47:59;22.00;51.00
72865;DHT22;61000;48.120;11.548;2022-07-06T08:50:29;22.00;51.00
72865;DHT22;61000;48.120;11.548;2022-07-06T08:52:57;22.10;51.00
72865;DHT22;61000;48.120;11.548;2022-07-06T08:55:25;22.20;50.80
72865;DHT22;61000;48.120;11.548;2022-07-06T08:57:54;22.20;51.00
72865;DHT22;61000;48.120;11.548;2022-07-06T09:00:22;22.50;50.30
72865;DHT22;61000;48.120;11.548;2022-07-06T09:02:49;22.90;48.70
72865;DHT22;61000;48.120;11.548;2022-07-06T09:05:18;23.50;47.90
72865;DHT22;61000;48.120;11.548;2022-07-06T09:07:45;23.90;45.90
72865;DHT22;61000;48.120;11.548;2022-07-06T09:10:17;24.10;45.00
72865;DHT22;61000;48.120;11.548;2022-07-06T09:12:44;24.40;44.10
72865;DHT22;61000;48.120;11.548;2022-07-06T09:15:11;24.90;43.20
72865;DHT22;61000;48.120;11.548;2022-07-06T09:17:39;25.40;42.60
72865;DHT22;61000;48.120;11.548;2022-07-06T09:20:07;25.50;41.50
72865;DHT22;61000;48.120;11.548;2022-07-06T09:22:37;25.60;40.90
72865;DHT22;61000;48.120;11.548;2022-07-06T09:25:05;25.70;41.20
72865;DHT22;61000;48.120;11.548;2022-07-06T09:27:37;25.70;42.30
72865;DHT22;61000;48.120;11.548;2022-07-06T09:30:07;26.20;41.70
72865;DHT22;61000;48.120;11.548;2022-07-06T09:32:38;26.50;40.50
72865;DHT22;61000;48.120;11.548;2022-07-06T09:35:06;27.00;39.10
72865;DHT22;61000;48.120;11.548;2022-07-06T09:37:33;27.50;39.60
72865;DHT22;61000;48.120;11.548;2022-07-06T09:40:03;27.20;37.80
72865;DHT22;61000;48.120;11.548;2022-07-06T09:42:42;26.70;38.60
72865;DHT22;61000;48.120;11.548;2022-07-06T09:45:09;26.80;38.60
72865;DHT22;61000;48.120;11.548;2022-07-06T09:47:36;26.60;38.00
72865;DHT22;61000;48.120;11.548;2022-07-06T09:50:06;26.70;38.30
72865;DHT22;61000;48.120;11.548;2022-07-06T09:52:34;26.90;38.80
72865;DHT22;61000;48.120;11.548;2022-07-06T09:55:06;26.90;38.80
72865;DHT22;61000;48.120;11.548;2022-07-06T09:57:52;27.10;38.00
72865;DHT22;61000;48.120;11.548;2022-07-06T10:00:21;27.40;37.00
72865;DHT22;61000;48.120;11.548;2022-07-06T10:02:48;27.60;36.80
72865;DHT22;61000;48.120;11.548;2022-07-06T10:05:16;27.90;36.30
72865;DHT22;61000;48.120;11.548;2022-07-06T10:07:45;27.70;35.00
72865;DHT22;61000;48.120;11.548;2022-07-06T10:10:14;27.20;35.70
72865;DHT22;61000;48.120;11.548;2022-07-06T10:12:42;26.90;36.40
72865;DHT22;61000;48.120;11.548;2022-07-06T10:15:11;27.40;36.80
72865;DHT22;61000;48.120;11.548;2022-07-06T10:17:39;27.80;35.70
72865;DHT22;61000;48.120;11.548;2022-07-06T10:20:07;28.30;35.30
72865;DHT22;61000;48.120;11.548;2022-07-06T10:22:34;28.50;34.60
72865;DHT22;61000;48.120;11.548;2022-07-06T10:25:02;28.20;34.30
72865;DHT22;61000;48.120;11.548;2022-07-06T10:27:30;28.00;35.20
72865;DHT22;61000;48.120;11.548;2022-07-06T10:29:58;28.00;35.30
72865;DHT22;61000;48.120;11.548;2022-07-06T10:32:26;28.30;35.20
72865;DHT22;61000;48.120;11.548;2022-07-06T10:34:54;28.20;34.00
72865;DHT22;61000;48.120;11.548;2022-07-06T10:37:23;28.00;35.20
72865;DHT22;61000;48.120;11.548;2022-07-06T10:39:51;28.10;34.70
72865;DHT22;61000;48.120;11.548;2022-07-06T10:42:44;27.80;34.90
72865;DHT22;61000;48.120;11.548;2022-07-06T10:45:13;27.40;34.40
72865;DHT22;61000;48.120;11.548;2022-07-06T10:47:41;27.30;35.70
72865;DHT22;61000;48.120;11.548;2022-07-06T10:50:08;26.80;34.20
72865;DHT22;61000;48.120;11.548;2022-07-06T10:52:48;26.60;34.10
72865;DHT22;61000;48.120;11.548;2022-07-06T10:55:31;26.50;35.40
72865;DHT22;61000;48.120;11.548;2022-07-06T10:58:00;26.30;35.90
72865;DHT22;61000;48.120;11.548;2022-07-06T11:00:49;26.20;36.00
72865;DHT22;61000;48.120;11.548;2022-07-06T11:03:33;26.00;36.80
72865;DHT22;61000;48.120;11.548;2022-07-06T11:06:01;25.60;38.40
72865;DHT22;61000;48.120;11.548;2022-07-06T11:11:38;26.00;38.30
72865;DHT22;61000;48.120;11.548;2022-07-06T11:14:08;25.50;37.90
72865;DHT22;61000;48.120;11.548;2022-07-06T11:16:37;25.30;38.90
72865;DHT22;61000;48.120;11.548;2022-07-06T11:19:07;25.30;37.40
72865;DHT22;61000;48.120;11.548;2022-07-06T11:21:40;25.40;37.30
72865;DHT22;61000;48.120;11.548;2022-07-06T11:24:10;25.30;37.80
72865;DHT22;61000;48.120;11.548;2022-07-06T11:26:37;25.40;38.50
72865;DHT22;61000;48.120;11.548;2022-07-06T11:29:07;25.20;38.30
72865;DHT22;61000;48.120;11.548;2022-07-06T11:31:35;25.20;37.80
72865;DHT22;61000;48.120;11.548;2022-07-06T11:34:04;25.20;38.20
72865;DHT22;61000;48.120;11.548;2022-07-06T11:36:31;25.40;37.50
72865;DHT22;61000;48.120;11.548;2022-07-06T11:38:58;25.60;37.80
72865;DHT22;61000;48.120;11.548;2022-07-06T11:41:25;25.60;38.50
72865;DHT22;61000;48.120;11.548;2022-07-06T11:43:52;25.50;39.00
72865;DHT22;61000;48.120;11.548;2022-07-06T11:46:22;25.60;38.60
72865;DHT22;61000;48.120;11.548;2022-07-06T11:48:49;25.80;38.50
72865;DHT22;61000;48.120;11.548;2022-07-06T11:51:17;25.80;37.20
72865;DHT22;61000;48.120;11.548;2022-07-06T11:53:45;25.80;36.70
72865;DHT22;61000;48.120;11.548;2022-07-06T11:56:14;25.70;36.70
72865;DHT22;61000;48.120;11.548;2022-07-06T11:58:42;25.60;37.60
72865;DHT22;61000;48.120;11.548;2022-07-06T12:01:13;25.60;38.50
72865;DHT22;61000;48.120;11.548;2022-07-06T12:03:42;25.50;39.60
72865;DHT22;61000;48.120;11.548;2022-07-06T12:06:20;25.40;39.10
72865;DHT22;61000;48.120;11.548;2022-07-06T12:08:49;25.30;38.20
72865;DHT22;61000;48.120;11.548;2022-07-06T12:11:20;25.50;38.40
72865;DHT22;61000;48.120;11.548;2022-07-06T12:13:48;25.60;38.10
72865;DHT22;61000;48.120;11.548;2022-07-06T12:16:16;25.50;37.80
72865;DHT22;61000;48.120;11.548;2022-07-06T12:18:46;25.50;37.20
72865;DHT22;61000;48.120;11.548;2022-07-06T12:21:15;25.60;37.50
72865;DHT22;61000;48.120;11.548;2022-07-06T12:23:45;25.80;37.50
72865;DHT22;61000;48.120;11.548;2022-07-06T12:26:13;25.90;37.80
72865;DHT22;61000;48.120;11.548;2022-07-06T12:28:40;25.80;37.50
72865;DHT22;61000;48.120;11.548;2022-07-06T12:31:07;25.60;37.50
72865;DHT22;61000;48.120;11.548;2022-07-06T12:33:35;25.30;37.80
72865;DHT22;61000;48.120;11.548;2022-07-06T12:36:14;25.40;37.70
72865;DHT22;61000;48.120;11.548;2022-07-06T12:38:45;25.60;37.30
72865;DHT22;61000;48.120;11.548;2022-07-06T12:41:30;25.70;36.60
72865;DHT22;61000;48.120;11.548;2022-07-06T12:44:09;25.70;37.60
72865;DHT22;61000;48.120;11.548;2022-07-06T12:46:37;25.60;37.70
72865;DHT22;61000;48.120;11.548;2022-07-06T12:49:13;25.50;37.30
72865;DHT22;61000;48.120;11.548;2022-07-06T12:51:55;25.20;37.80
72865;DHT22;61000;48.120;11.548;2022-07-06T12:54:23;25.50;38.10
72865;DHT22;61000;48.120;11.548;2022-07-06T12:57:06;25.70;37.30
72865;DHT22;61000;48.120;11.548;2022-07-06T12:59:35;25.90;37.00
72865;DHT22;61000;48.120;11.548;2022-07-06T13:02:04;26.10;36.00
72865;DHT22;61000;48.120;11.548;2022-07-06T13:04:33;25.80;36.30
72865;DHT22;61000;48.120;11.548;2022-07-06T13:07:02;25.60;36.20
72865;DHT22;61000;48.120;11.548;2022-07-06T13:09:30;25.60;36.50
72865;DHT22;61000;48.120;11.548;2022-07-06T13:11:57;25.60;36.10
72865;DHT22;61000;48.120;11.548;2022-07-06T13:14:24;25.70;36.80
72865;DHT22;61000;48.120;11.548;2022-07-06T13:16:51;26.00;37.20
72865;DHT22;61000;48.120;11.548;2022-07-06T13:19:19;26.30;37.60
72865;DHT22;61000;48.120;11.548;2022-07-06T13:21:46;26.50;36.60
72865;DHT22;61000;48.120;11.548;2022-07-06T13:24:14;26.50;34.90
72865;DHT22;61000;48.120;11.548;2022-07-06T13:26:41;26.30;34.40
72865;DHT22;61000;48.120;11.548;2022-07-06T13:29:08;26.00;35.50
72865;DHT22;61000;48.120;11.548;2022-07-06T13:31:37;25.90;35.40
72865;DHT22;61000;48.120;11.548;2022-07-06T13:34:04;25.90;36.50
72865;DHT22;61000;48.120;11.548;2022-07-06T13:36:32;25.90;35.80
72865;DHT22;61000;48.120;11.548;2022-07-06T13:38:59;25.80;35.50
72865;DHT22;61000;48.120;11.548;2022-07-06T13:41:27;25.90;36.30
72865;DHT22;61000;48.120;11.548;2022-07-06T13:43:54;26.10;35.70
72865;DHT22;61000;48.120;11.548;2022-07-06T13:46:21;26.10;35.40
72865;DHT22;61000;48.120;11.548;2022-07-06T13:48:48;26.10;35.50
72865;DHT22;61000;48.120;11.548;2022-07-06T13:51:15;26.00;35.40
72865;DHT22;61000;48.120;11.548;2022-07-06T13:53:42;26.20;35.50
72865;DHT22;61000;48.120;11.548;2022-07-06T13:56:09;26.20;35.60
72865;DHT22;61000;48.120;11.548;2022-07-06T13:58:37;26.20;35.70
72865;DHT22;61000;48.120;11.548;2022-07-06T14:01:05;26.10;35.80
72865;DHT22;61000;48.120;11.548;2022-07-06T14:03:32;26.20;35.80
72865;DHT22;61000;48.120;11.548;2022-07-06T14:06:00;26.30;35.90
72865;DHT22;61000;48.120;11.548;2022-07-06T14:08:27;26.50;36.50
72865;DHT22;61000;48.120;11.548;2022-07-06T14:10:55;26.40;35.80
72865;DHT22;61000;48.120;11.548;2022-07-06T14:13:22;26.20;36.00
72865;DHT22;61000;48.120;11.548;2022-07-06T14:15:51;25.90;35.90
72865;DHT22;61000;48.120;11.548;2022-07-06T14:18:18;25.70;36.30
72865;DHT22;61000;48.120;11.548;2022-07-06T14:20:46;25.70;35.90
72865;DHT22;61000;48.120;11.548;2022-07-06T14:23:14;25.70;36.00
72865;DHT22;61000;48.120;11.548;2022-07-06T14:25:42;25.80;35.50
72865;DHT22;61000;48.120;11.548;2022-07-06T14:28:09;25.90;34.60
72865;DHT22;61000;48.120;11.548;2022-07-06T14:30:39;25.70;34.50
72865;DHT22;61000;48.120;11.548;2022-07-06T14:33:09;25.70;35.10
72865;DHT22;61000;48.120;11.548;2022-07-06T14:35:37;25.80;35.10
72865;DHT22;61000;48.120;11.548;2022-07-06T14:38:05;25.80;34.70
72865;DHT22;61000;48.120;11.548;2022-07-06T14:40:33;25.40;35.10
72865;DHT22;61000;48.120;11.548;2022-07-06T14:43:00;25.40;35.20
72865;DHT22;61000;48.120;11.548;2022-07-06T14:45:28;25.50;35.40
72865;DHT22;61000;48.120;11.548;2022-07-06T14:47:55;25.70;35.20
72865;DHT22;61000;48.120;11.548;2022-07-06T14:50:23;25.80;35.20
72865;DHT22;61000;48.120;11.548;2022-07-06T14:52:51;25.60;35.30
72865;DHT22;61000;48.120;11.548;2022-07-06T14:55:18;25.50;35.90
72865;DHT22;61000;48.120;11.548;2022-07-06T14:57:46;25.40;35.50
72865;DHT22;61000;48.120;11.548;2022-07-06T15:00:14;25.40;35.60
72865;DHT22;61000;48.120;11.548;2022-07-06T15:02:41;25.40;35.50
72865;DHT22;61000;48.120;11.548;2022-07-06T15:05:09;25.30;36.10
72865;DHT22;61000;48.120;11.548;2022-07-06T15:07:37;25.30;36.00
72865;DHT22;61000;48.120;11.548;2022-07-06T15:10:06;25.50;36.00
72865;DHT22;61000;48.120;11.548;2022-07-06T15:12:34;25.70;35.30
72865;DHT22;61000;48.120;11.548;2022-07-06T15:15:01;25.80;35.30
72865;DHT22;61000;48.120;11.548;2022-07-06T15:17:27;25.90;34.90
72865;DHT22;61000;48.120;11.548;2022-07-06T15:19:57;26.00;35.20
72865;DHT22;61000;48.120;11.548;2022-07-06T15:22:24;26.00;35.50
72865;DHT22;61000;48.120;11.548;2022-07-06T15:24:52;25.90;34.70